Weather observations for the past three days for
Alma, Gratiot Community Airport
Metric (Imperial)
Date Time (edt) Wind (kph) Vis. (km) Weather Sky Cond. Temperature (ºC) Relative Humidity Wind Chill (°C) Heat Index (°C) Pressure Precipitation (cm)
Air Dwpt 6 hour altimeter (cm) sea level (mb) 1 hr 3 hr 6 hr
Max. Min.
07 03:35 NW 6 16.09 Mostly Cloudy FEW070 BKN090 4 1 81% 75.95 0.0
07 03:15 S 4 16.09 Overcast SCT070 OVC090 5 2 81% 75.92 0.0
07 02:55 Calm 16.09 Overcast FEW070 OVC090 5 1 76% 75.95 0.0
07 02:35 NW 4 16.09 Overcast BKN070 OVC090 6 1 71% 75.95 0.0
07 02:16 N 4 16.09 Overcast BKN070 OVC100 6 0 66% 75.95 0.0
07 01:55 NW 6 16.09 Overcast BKN070 OVC100 6 -1 10.4 5.8 61% 75.97 0.0
07 01:35 NW 6 16.09 Overcast SCT070 OVC100 6 0 66% 75.97 0.0
07 01:15 W 7 16.09 Overcast OVC100 6 0 66% 5 75.97 0.0
07 00:55 W 7 16.09 Overcast OVC100 6 0 66% 5 75.97 0.0
07 00:35 W 9 16.09 Overcast OVC100 6 0 66% 4 75.97 0.0
07 00:15 W 9 16.09 Overcast OVC100 6 0 66% 4 75.97 0.0
06 23:56 W 7 16.09 Overcast SCT085 OVC110 7 0 61% 6 75.97 0.0
06 23:35 W 11 16.09 Overcast OVC110 7 -1 57% 5 75.97 0.0
06 23:15 NW 13 16.09 Overcast OVC100 8 -2 50% 6 75.97 0.0
06 22:55 W 9 16.09 Overcast OVC110 8 -1 53% 7 75.97 0.0
06 22:35 W 9 16.09 Overcast OVC100 8 -1 53% 7 75.97 0.0
06 22:15 W 13 16.09 Overcast OVC100 9 -2 46% 7 75.95 0.0
06 21:55 W 9 16.09 Overcast OVC090 8 -1 53% 7 75.95 0.0
06 21:36 W 11 16.09 Overcast SCT070 OVC090 9 -2 46% 8 75.95 0.0
06 21:15 NW 19 16.09 Overcast OVC070 10 -3 40% 8 75.95 0.0
06 20:55 W 20 16.09 Overcast BKN070 OVC090 10 -2 43% 8 75.92 0.0
06 20:35 W 11 16.09 Overcast SCT080 OVC090 10 -3 40% 9 75.9 0.0
06 20:15 W 15 16.09 Overcast BKN080 OVC090 10 -3 40% 8 75.9 0.0
06 19:55 W 11 16.09 Overcast OVC080 10 -3 12 9.9 40% 9 75.9 0.0
06 19:35 W 11 16.09 Overcast OVC080 10 -3 40% 9 75.9 0.0
06 19:16 W 17 G 30 16.09 Overcast OVC080 11 -3 38% 75.87 0.0
06 18:55 W 20 16.09 Overcast OVC080 11 -4 35% 75.87 0.0
06 18:35 W 20 G 26 16.09 Overcast OVC080 11 -4 35% 75.87 0.0
06 18:15 W 13 16.09 Overcast OVC080 11 -3 38% 75.87 0.0
06 17:55 W 22 16.09 Overcast FEW070 OVC080 12 -3 35% 75.9 0.0
06 17:35 W 17 16.09 Overcast OVC070 11 -3 38% 75.87 0.0
06 17:15 W 17 16.09 Overcast BKN070 OVC080 11 -2 41% 75.87 0.0
06 16:56 W 15 16.09 Overcast BKN070 OVC080 11 -2 41% 75.87 0.0
06 16:35 W 13 16.09 Overcast BKN070 OVC080 11 -2 41% 75.9 0.0
06 16:15 W 19 16.09 Overcast OVC080 11 -3 38% 75.9 0.0
06 15:55 W 19 16.09 Overcast OVC070 11 -2 41% 75.9 0.0
06 15:35 W 13 16.09 Overcast OVC070 11 -2 41% 75.92 0.0
06 15:15 NW 17 G 26 16.09 Overcast OVC065 11 -2 41% 75.92 0.0
06 14:55 W 13 16.09 Overcast FEW065 OVC075 11 -2 41% 75.92 0.0
06 14:36 W 22 16.09 Overcast OVC075 11 -2 41% 75.92 0.0
06 14:15 Vrbl 6 16.09 Overcast SCT060 OVC070 11 -3 38% 75.92 0.0
06 13:55 W 9 16.09 Overcast BKN060 OVC070 10 -3 11 4.3 40% 9 75.95 0.0
06 13:35 Vrbl 11 16.09 Overcast OVC070 11 -2 41% 75.95 0.0
06 13:15 Vrbl 6 16.09 Overcast SCT050 OVC060 10 -1 47% 75.97 0.0
06 12:55 Vrbl 4 16.09 Overcast OVC060 10 -1 47% 75.97 0.0
06 12:35 Vrbl 11 16.09 Overcast SCT050 OVC060 9 -1 50% 8 75.97 0.0
06 12:16 N 11 16.09 Mostly Cloudy BKN060 10 -2 43% 9 75.97 0.0
06 11:55 NW 17 16.09 Overcast SCT041 SCT046 OVC060 9 -2 46% 7 76 0.0
06 11:35 Vrbl 4 16.09 Partly Cloudy SCT039 SCT046 9 0 54% 76 0.0
06 11:15 SW 4 16.09 Partly Cloudy SCT034 9 1 58% 76 0.0
06 10:55 E 7 16.09 Mostly Cloudy BKN032 8 0 57% 7 75.97 0.0
06 10:35 Vrbl 4 16.09 Partly Cloudy SCT030 8 0 57% 75.97 0.0
06 10:15 Vrbl 6 16.09 Partly Cloudy SCT028 7 0 61% 75.97 0.0
06 09:56 Vrbl 9 16.09 Mostly Cloudy BKN026 7 0 61% 5 75.95 0.0
06 09:35 E 6 12.87 Mostly Cloudy BKN024 6 0 66% 75.97 0.0
06 09:15 NE 7 16.09 Mostly Cloudy BKN024 5 -1 66% 4 75.97 0.0
06 08:55 NE 11 16.09 Mostly Cloudy BKN024 5 -1 66% 3 75.95 0.0
06 08:35 NE 13 16.09 Overcast OVC022 5 -1 66% 2 75.95 0.0
06 08:15 NE 17 16.09 Overcast OVC018 5 0 70% 2 75.9 0.0
06 07:55 NE 13 16.09 Overcast OVC018 4 0 6.6 2.7 75% 1 75.87 0.0
06 07:36 NE 15 16.09 Mostly Cloudy BKN018 4 0 75% 1 75.84 0.0
06 07:15 N 9 16.09 A Few Clouds FEW018 3 0 81% 1 75.84 0.0
06 06:55 N 15 16.09 Fair CLR 3 0 81% -0 75.84 0.0
06 06:35 N 13 16.09 Fair CLR 3 0 81% 0 75.79 0.0
06 06:15 N 9 16.09 Fair CLR 3 -2 70% 1 75.79 0.0
06 05:55 NW 9 16.09 Fair CLR 4 -2 65% 2 75.74 0.0
06 05:35 NW 9 16.09 Fair CLR 4 -2 65% 2 75.72 0.0
06 05:16 NW 9 16.09 Fair CLR 5 -2 61% 3 75.72 0.0
06 04:55 NW 7 16.09 Fair CLR 5 -1 66% 4 75.72 0.0
06 04:35 NW 9 16.09 Fair CLR 6 -2 57% 4 75.72 0.0
06 04:15 NW 11 16.09 Fair CLR 6 -2 57% 4 75.72 0.0
06 03:55 NW 11 16.09 Fair CLR 5 -1 66% 3 75.69 0.0
06 03:35 W 9 16.09 Fair CLR 6 -1 61% 4 75.69 0.0
06 03:15 NW 9 16.09 Fair CLR 6 -2 57% 4 75.69 0.0
06 02:56 NW 11 16.09 Fair CLR 6 -1 61% 4 75.69 0.0
06 02:35 NW 9 16.09 Fair CLR 6 -1 61% 4 75.72 0.0
06 02:15 NW 9 16.09 Fair CLR 7 -2 53% 5 75.72 0.0
06 01:55 W 13 16.09 Fair CLR 6 -1 11 5.4 61% 4 75.74 0.0
06 01:35 NW 9 16.09 Fair CLR 5 -1 66% 3 75.69 0.0
06 01:15 NW 7 16.09 Fair CLR 6 -1 61% 5 75.72 0.0
06 00:55 NW 7 16.09 Fair CLR 7 -2 53% 6 75.69 0.0
06 00:36 NW 7 16.09 Fair CLR 7 -2 53% 6 75.69 0.0
06 00:15 NW 9 16.09 Fair CLR 7 -2 53% 5 75.67 0.0
05 23:55 NW 9 16.09 Fair CLR 7 -2 53% 5 75.67 0.0
05 23:35 NW 11 16.09 Fair CLR 7 -1 57% 5 75.69 0.0
05 23:15 NW 9 16.09 Fair CLR 7 0 61% 5 75.67 0.0
05 22:55 W 9 16.09 Fair CLR 7 0 61% 5 75.67 0.0
05 22:35 NW 7 16.09 Fair CLR 7 -1 57% 6 75.64 0.0
05 22:16 NW 7 16.09 Fair CLR 8 -1 53% 7 75.64 0.0
05 21:55 NW 7 16.09 Fair CLR 8 -1 53% 7 75.64 0.0
05 21:35 NW 7 16.09 Fair CLR 9 -1 50% 8 75.62 0.0
05 21:15 NW 7 16.09 Fair CLR 9 -1 50% 8 75.59 0.0
05 20:55 W 7 16.09 Fair CLR 10 -1 47% 9 75.59 0.0
05 20:35 W 9 16.09 Fair CLR 10 -1 47% 9 75.57 0.0
05 20:15 W 15 16.09 Fair CLR 11 -2 41% 75.57 0.0
05 19:56 W 17 16.09 Fair CLR 11 -2 41% 75.57 0.0
05 19:35 W 20 16.09 Fair CLR 11 -2 41% 75.54 0.0
05 19:15 W 20 16.09 Fair CLR 12 -2 38% 75.54 0.0
05 18:55 W 22 16.09 Fair CLR 12 -2 38% 75.54 0.0
05 18:35 W 20 16.09 Fair CLR 12 -3 35% 75.51 0.0
05 18:15 W 22 G 31 16.09 Fair CLR 13 -2 36% 75.54 0.0
05 17:55 W 24 16.09 Fair CLR 13 -2 36% 75.51 0.0
05 17:36 W 20 G 31 16.09 Fair CLR 13 -2 36% 75.51 0.0
05 17:15 W 17 G 31 16.09 Fair CLR 14 -3 31% 75.51 0.0
05 16:55 W 20 G 30 16.09 Fair CLR 14 -4 29% 75.51 0.0
05 16:35 W 30 16.09 Fair CLR 14 -3 31% 75.51 0.0
05 16:15 W 20 G 30 16.09 Fair CLR 15 -3 29% 75.49 0.0
05 15:55 W 26 G 33 16.09 Fair CLR 15 -3 29% 75.49 0.0
05 15:35 W 20 G 39 16.09 Fair CLR 15 -3 29% 75.49 0.0
05 15:16 W 22 G 33 16.09 Fair CLR 15 -3 29% 75.46 0.0
05 14:55 NW 24 G 37 16.09 Fair CLR 14 -4 29% 75.46 0.0
05 14:35 W 15 G 41 16.09 Fair CLR 14 -2 33% 75.49 0.0
05 14:15 W 22 G 39 16.09 Fair CLR 15 -2 31% 75.49 0.0
05 13:55 W 24 G 37 16.09 Fair CLR 14 -2 14.8 9.1 33% 75.46 0.0
05 13:35 W 26 G 39 16.09 Fair CLR 14 -2 33% 75.44 0.0
05 13:15 W 28 G 35 16.09 A Few Clouds FEW055 14 0 39% 75.46 0.0
05 12:56 W 20 G 37 16.09 Fair CLR 14 1 41% 75.46 0.0
05 12:35 W 24 G 37 16.09 Partly Cloudy SCT048 SCT050 14 1 41% 75.44 0.0
05 12:15 W 17 G 31 16.09 Mostly Cloudy SCT047 BKN050 13 2 47% 75.46 0.0
05 11:55 W 28 G 43 16.09 Partly Cloudy SCT047 SCT055 14 3 48% 75.49 0.0
05 11:35 W 20 G 30 16.09 Partly Cloudy SCT045 13 2 47% 75.49 0.0
05 11:15 W 17 16.09 Fair CLR 12 2 51% 75.49 0.0
05 10:55 W 13 16.09 Fair CLR 12 2 51% 75.46 0.0
05 10:36 W 19 16.09 Fair CLR 11 2 54% 75.46 0.0
05 10:15 W 11 16.09 A Few Clouds FEW044 11 2 54% 75.44 0.0
05 09:55 W 9 16.09 Mostly Cloudy BKN044 11 2 54% 75.46 0.0
05 09:35 NW 7 16.09 Overcast OVC042 11 2 54% 75.44 0.0
05 09:15 Vrbl 6 16.09 Overcast OVC040 10 2 58% 75.44 0.0
05 08:55 W 6 16.09 Mostly Cloudy BKN038 11 2 54% 75.36 0.0
05 08:35 N 11 16.09 Fair CLR 10 2 58% 9 75.31 0.0
05 08:16 NW 7 16.09 Fair CLR 10 4 67% 9 75.34 0.0
05 07:55 NW 11 16.09 Fair CLR 9 3 16 7.3 66% 8 75.34 0.0
05 07:35 N 7 16.09 A Few Clouds FEW023 9 3 66% 8 75.29 0.0
05 07:15 N 11 16.09 Mostly Cloudy BKN021 8 2 66% 6 75.29 0.0
05 06:55 N 9 16.09 Partly Cloudy SCT019 SCT110 8 3 71% 7 75.26 0.0
05 06:35 NW 9 16.09 A Few Clouds FEW110 8 3 71% 7 75.23 0.0
05 06:15 N 9 16.09 Fair CLR 9 3 66% 8 75.18 0.0
05 05:56 N 15 16.09 Partly Cloudy SCT110 9 3 66% 7 75.18 0.0
05 05:35 N 20 16.09 Mostly Cloudy BKN120 10 4 67% 8 75.13 0.0
05 05:15 W 13 16.09 Partly Cloudy SCT120 12 4 58% 75.06 0.0
05 04:55 W 13 16.09 Partly Cloudy SCT110 12 5 63% 75.03 0.0
05 04:35 W 13 16.09 Partly Cloudy SCT110 12 5 63% 75.03 0.0
05 04:15 W 11 16.09 Mostly Cloudy BKN110 13 5 59% 74.98 0.0
05 03:55 W 13 16.09 Mostly Cloudy BKN100 13 6 63% 74.98 0.0
05 03:36 W 13 16.09 Overcast OVC100 14 6 59% 74.98 0.0
05 03:15 W 15 16.09 Mostly Cloudy BKN100 14 7 63% 74.98 0.0
05 02:55 W 13 16.09 Fair CLR 15 7 59% 74.93 0.0
05 02:35 W 17 16.09 Fair CLR 15 8 63% 74.93 0.0
05 02:15 W 13 16.09 Fair CLR 16 10 68% 74.9 0.0
05 01:55 SW 11 16.09 Fair CLR 16 10 21.7 16 68% 74.9 0.0
05 01:35 SW 17 16.09 Fair CLR 16 10 68% 74.9 0.0
05 01:16 SW 17 G 30 16.09 Fair CLR 17 10 64% 74.88 0.0
05 00:55 SW 26 G 37 16.09 Partly Cloudy SCT080 SCT090 17 10 64% 74.88 0.0
05 00:35 SW 20 G 31 16.09 Partly Cloudy SCT080 SCT095 18 10 60% 74.88 0.0
05 00:15 W 26 16.09 Fair CLR 18 10 60% 74.88 0.0
04 23:55 W 20 G 33 16.09 A Few Clouds FEW120 18 11 64% 74.83 0.0
04 23:35 SW 19 16.09 Mostly Cloudy SCT080 BKN120 18 12 68% 74.8 0.0
04 23:15 SW 24 G 35 16.09 Light Rain BKN080 BKN100 18 12 68% 74.78 0.0
04 22:56 SW 33 G 57 16.09 A Few Clouds and Breezy FEW100 20 9 49% 74.8 0.0
04 22:35 SW 22 G 39 16.09 Fair CLR 20 10 53% 74.75 0.0
04 22:15 S 26 G 35 16.09 A Few Clouds FEW100 19 8 49% 74.73 0.0
04 21:55 SW 17 16.09 Fair CLR 19 7 46% 74.75 0.0
04 21:35 SW 13 16.09 Fair CLR 18 6 46% 74.73 0.0
04 21:15 SW 17 16.09 Fair CLR 19 6 43% 74.73 0.0
04 20:55 SW 17 16.09 Fair CLR 19 6 43% 74.73 0.0
04 20:36 SW 15 16.09 Fair CLR 20 5 38% 74.73 0.0
04 20:15 SW 19 16.09 Fair CLR 21 5 35% 74.73 0.0
04 19:55 SW 20 G 30 16.09 Fair CLR 22 4 24.1 21.6 31% 74.73 0.0
04 19:35 SW 19 16.09 Fair CLR 22 4 31% 74.75 0.0
04 19:15 SW 19 G 39 16.09 Fair CLR 22 4 31% 74.78 0.0
04 18:55 SW 22 G 33 16.09 Fair CLR 22 4 31% 74.8 0.0
04 18:35 W 26 G 35 16.09 Fair CLR 23 3 27% 74.83 0.0
04 17:55 SW 31 G 44 16.09 Fair CLR 23 3 27% 74.85 0.0
04 17:35 SW 35 G 48 16.09 Fair and Breezy CLR 23 3 27% 74.85 0.0
04 17:15 SW 31 G 48 16.09 Fair CLR 24 2 24% 25 74.88 0.0
04 16:55 W 31 G 44 16.09 Fair CLR 23 1 23% 74.88 0.0
04 16:35 W 31 G 48 16.09 Fair CLR 24 1 22% 25 74.88 0.0
04 16:15 W 33 G 48 16.09 Fair and Breezy CLR 23 1 23% 74.9 0.0
04 15:56 W 31 G 46 16.09 Fair CLR 24 1 22% 25 74.9 0.0
04 15:35 W 33 G 57 16.09 Fair and Breezy CLR 23 0 22% 74.9 0.0
04 15:15 W 33 G 52 16.09 Fair and Breezy CLR 23 0 22% 74.9 0.0
04 14:55 SW 28 G 50 16.09 Fair CLR 23 0 22% 74.93 0.0
04 14:35 W 33 G 54 16.09 Fair and Breezy CLR 24 1 22% 25 74.93 0.0
04 14:15 SW 30 G 56 16.09 Fair CLR 23 0 22% 74.96 0.0
04 13:55 SW 31 G 54 16.09 Fair CLR 23 0 23.4 9.8 22% 74.96 0.0
04 13:36 SW 31 G 44 16.09 Fair CLR 23 2 25% 74.98 0.0
04 13:15 SW 35 G 52 16.09 Fair and Breezy CLR 23 1 23% 75.01 0.0
04 12:55 SW 30 G 56 16.09 Fair CLR 22 2 27% 75.01 0.0
04 12:35 W 39 G 44 16.09 Fair and Breezy CLR 22 3 29% 75.03 0.0
04 12:15 SW 22 G 33 16.09 Fair CLR 22 7 38% 75.06 0.0
04 11:55 SW 28 G 37 16.09 Fair CLR 21 7 40% 75.08 0.0
04 11:35 SW 24 16.09 Fair CLR 20 8 46% 75.11 0.0
04 11:16 S 22 G 28 16.09 Fair CLR 19 8 49% 75.13 0.0
04 10:55 SW 20 G 30 16.09 Fair CLR 18 8 52% 75.16 0.0
04 10:35 SW 19 G 31 16.09 Fair CLR 17 8 56% 75.16 0.0
04 10:15 S 20 16.09 Fair CLR 16 8 59% 75.18 0.0
04 09:55 SW 17 16.09 Fair CLR 15 8 63% 75.18 0.0
04 09:35 SW 24 G 30 16.09 Fair CLR 14 8 67% 75.21 0.0
04 09:15 SW 17 16.09 Fair CLR 13 7 67% 75.21 0.0
04 08:56 SW 20 9.66 Fair with Haze CLR 12 7 72% 75.21 0.0
04 08:35 SW 20 0.24 Sky Obscured with Haze VV000 11 7 77% 75.21 0.0
04 08:15 SW 19 16.09 Fair CLR 11 7 77% 75.21 0.0
04 07:55 S 19 16.09 Fair CLR 10 6 9.8 7.6 76% 8 75.21 0.0
04 07:35 SW 17 G 26 16.09 Fair CLR 9 6 82% 7 75.21 0.0
04 07:15 SW 15 16.09 Fair CLR 9 6 82% 7 75.21 0.0
04 06:55 SW 13 16.09 Fair CLR 8 6 87% 6 75.21 0.0
04 06:36 S 15 16.09 Fair CLR 8 5 82% 6 75.18 0.0
04 06:15 S 17 16.09 Fair CLR 8 5 82% 6 75.21 0.0
04 05:55 SW 13 16.09 Fair CLR 8 5 82% 6 75.21 0.0
04 05:35 SW 15 16.09 Fair CLR 8 5 82% 6 75.23 0.0
04 05:15 SW 11 16.09 Fair CLR 8 5 82% 6 75.23 0.0
04 04:55 SW 13 16.09 Fair CLR 8 6 87% 6 75.23 0.0
04 04:35 SW 13 16.09 Fair CLR 8 5 82% 6 75.23 0.0
04 04:16 SW 13 16.09 Fair CLR 9 6 82% 7 75.23 0.0
04 03:55 SW 13 16.09 Fair CLR 9 6 82% 7 75.26 0.0
Date Time (edt) Wind (kph) Vis. (km) Weather Sky Cond. Air Dwpt Max. Min. Relative Humidity Wind Chill (°C) Heat Index (°C) altimeter (cm) sea level (mb) 1 hr 3 hr 6 hr
6 hour
Temperature (ºC) Pressure Precipitation (cm)